Time;durP1;ratioP1;P1;durP2;ratioP2;P2;SDS_P1;SDS_P2;PMS_P1;PMS_P2;Temp;Humidity;BMP_temperature;BMP_pressure;BME280_temperature;BME280_humidity;BME280_pressure;Samples;Min_cycle;Max_cycle;Signal;HPM_P1;HPM_P2
2024/03/02 00:00:51;;;;;;;72.17;16.40;;;;;;;;;;4995158;28;20983;-69
2024/03/02 00:03:18;;;;;;;68.40;15.77;;;;;;;;;;4992348;28;20455;-69
2024/03/02 00:05:46;;;;;;;71.40;15.60;;;;;;;;;;4991945;28;20478;-70
2024/03/02 00:08:15;;;;;;;69.73;15.93;;;;;;;;;;4992020;28;20450;-70
2024/03/02 00:10:42;;;;;;;72.13;15.23;;;;;;;;;;4992027;28;20448;-69
2024/03/02 00:13:11;;;;;;;77.33;19.23;;;;;;;;;;5011902;28;20470;-70
2024/03/02 00:15:48;;;;;;;77.80;17.50;;;;;;;;;;5010913;28;20470;-70
2024/03/02 00:18:16;;;;;;;78.50;18.43;;;;;;;;;;4984749;28;20481;-70
2024/03/02 00:20:43;;;;;;;74.13;17.10;;;;;;;;;;5007890;28;20448;-69
2024/03/02 00:23:11;;;;;;;71.53;15.60;;;;;;;;;;4987885;28;20446;-69
2024/03/02 00:25:40;;;;;;;73.63;16.77;;;;;;;;;;5011312;28;20451;-69
2024/03/02 00:28:12;;;;;;;72.57;17.50;;;;;;;;;;5011651;28;20528;-70
2024/03/02 00:30:49;;;;;;;77.37;17.30;;;;;;;;;;5011589;28;20459;-70
2024/03/02 00:33:16;;;;;;;72.53;16.30;;;;;;;;;;4988926;28;20453;-69
2024/03/02 00:35:45;;;;;;;72.23;15.53;;;;;;;;;;5003545;28;20466;-69
2024/03/02 00:38:13;;;;;;;74.37;14.67;;;;;;;;;;4983884;28;20751;-70
2024/03/02 00:40:40;;;;;;;71.30;17.50;;;;;;;;;;5007482;28;20523;-70
2024/03/02 00:43:07;;;;;;;70.20;14.90;;;;;;;;;;5011655;28;20434;-70
2024/03/02 00:45:34;;;;;;;67.63;14.40;;;;;;;;;;5011315;28;20455;-70
2024/03/02 00:48:04;;;;;;;71.55;15.10;;;;;;;;;;5009327;28;20824;-70
2024/03/02 00:50:32;;;;;;;75.93;15.40;;;;;;;;;;4991568;28;20213;-69
2024/03/02 00:53:00;;;;;;;73.30;15.77;;;;;;;;;;4991917;28;20451;-69
2024/03/02 00:55:26;;;;;;;73.97;16.33;;;;;;;;;;4991489;28;20494;-69
2024/03/02 00:57:53;;;;;;;69.17;14.37;;;;;;;;;;5000593;28;20455;-69
2024/03/02 01:00:20;;;;;;;69.97;14.70;;;;;;;;;;5011144;28;21028;-70
2024/03/02 01:02:48;;;;;;;70.70;14.93;;;;;;;;;;5003191;28;20454;-69
2024/03/02 01:05:16;;;;;;;71.70;15.73;;;;;;;;;;5007451;28;20514;-70
2024/03/02 01:07:43;;;;;;;68.70;13.80;;;;;;;;;;5007117;28;20470;-70
2024/03/02 01:10:11;;;;;;;73.37;16.03;;;;;;;;;;4991868;28;20451;-70
2024/03/02 01:12:38;;;;;;;71.67;15.23;;;;;;;;;;4998494;28;20442;-71
2024/03/02 01:15:07;;;;;;;73.27;16.80;;;;;;;;;;4992469;28;20456;-71
2024/03/02 01:17:35;;;;;;;71.83;12.93;;;;;;;;;;5005733;28;20579;-70
2024/03/02 01:20:02;;;;;;;70.70;13.50;;;;;;;;;;5000873;28;20586;-71
2024/03/02 01:22:31;;;;;;;72.93;15.50;;;;;;;;;;4991338;28;20462;-71
2024/03/02 01:24:58;;;;;;;69.90;14.90;;;;;;;;;;4992602;28;20545;-71
2024/03/02 01:27:26;;;;;;;72.10;16.53;;;;;;;;;;5013914;28;20584;-71
2024/03/02 01:29:54;;;;;;;70.43;14.97;;;;;;;;;;5014097;28;20446;-71
2024/03/02 01:32:21;;;;;;;75.67;14.93;;;;;;;;;;4994643;28;20546;-71
2024/03/02 01:34:48;;;;;;;70.40;15.70;;;;;;;;;;4994593;28;20451;-70
2024/03/02 01:37:15;;;;;;;69.27;14.00;;;;;;;;;;5014038;28;20970;-70
2024/03/02 01:39:44;;;;;;;70.73;14.93;;;;;;;;;;5006347;28;20497;-70
2024/03/02 01:42:11;;;;;;;69.90;15.03;;;;;;;;;;5014332;28;20461;-70
2024/03/02 01:44:38;;;;;;;70.67;13.93;;;;;;;;;;4999421;28;20482;-70
2024/03/02 01:47:05;;;;;;;73.38;14.13;;;;;;;;;;4994262;28;20994;-70
2024/03/02 01:49:33;;;;;;;71.00;14.60;;;;;;;;;;4994868;28;20301;-70
2024/03/02 01:52:01;;;;;;;67.78;13.02;;;;;;;;;;5004195;28;20298;-70
2024/03/02 01:54:28;;;;;;;71.00;15.47;;;;;;;;;;5014157;28;20204;-70
2024/03/02 01:56:56;;;;;;;66.67;13.57;;;;;;;;;;4997105;28;20500;-71
2024/03/02 01:59:23;;;;;;;70.13;13.95;;;;;;;;;;4994174;28;20493;-71
2024/03/02 02:01:50;;;;;;;72.00;15.60;;;;;;;;;;5002560;28;20199;-71
2024/03/02 02:04:17;;;;;;;69.87;14.20;;;;;;;;;;4994199;28;20454;-70
2024/03/02 02:06:45;;;;;;;69.10;13.87;;;;;;;;;;4994092;28;20471;-70
2024/03/02 02:09:12;;;;;;;71.17;14.43;;;;;;;;;;5005213;28;20943;-69
2024/03/02 02:11:40;;;;;;;70.13;15.47;;;;;;;;;;5013691;28;20447;-70
2024/03/02 02:14:09;;;;;;;69.40;14.80;;;;;;;;;;5013379;28;20495;-70
2024/03/02 02:16:36;;;;;;;70.18;13.38;;;;;;;;;;4999406;28;20467;-70
2024/03/02 02:19:03;;;;;;;67.90;12.80;;;;;;;;;;5003870;28;20207;-70
2024/03/02 02:21:31;;;;;;;68.70;12.90;;;;;;;;;;5013614;28;20446;-70
2024/03/02 02:23:58;;;;;;;69.13;13.70;;;;;;;;;;5013344;28;20450;-70
2024/03/02 02:26:26;;;;;;;69.35;12.85;;;;;;;;;;5013381;28;20236;-70
2024/03/02 02:28:53;;;;;;;73.75;15.52;;;;;;;;;;5013544;28;20553;-70
2024/03/02 02:31:20;;;;;;;67.80;13.43;;;;;;;;;;5001500;28;20306;-71
2024/03/02 02:33:47;;;;;;;70.30;15.40;;;;;;;;;;5009458;28;20453;-70
2024/03/02 02:36:14;;;;;;;70.47;15.10;;;;;;;;;;5012850;28;20836;-70
2024/03/02 02:38:44;;;;;;;70.18;13.48;;;;;;;;;;4997833;28;20208;-71
2024/03/02 02:41:11;;;;;;;74.93;14.88;;;;;;;;;;4993399;28;20230;-70
2024/03/02 02:43:39;;;;;;;69.18;13.60;;;;;;;;;;4993788;28;20295;-70
2024/03/02 02:46:06;;;;;;;69.45;13.98;;;;;;;;;;4993434;28;20592;-70
2024/03/02 02:48:33;;;;;;;70.85;13.80;;;;;;;;;;5007015;28;20666;-70
2024/03/02 02:51:01;;;;;;;75.43;15.25;;;;;;;;;;4995128;28;20237;-70
2024/03/02 02:53:28;;;;;;;72.75;16.40;;;;;;;;;;5001700;28;20204;-70
2024/03/02 02:55:56;;;;;;;75.30;15.73;;;;;;;;;;5047261;23;20998;-70
2024/03/02 02:58:23;;;;;;;73.55;15.40;;;;;;;;;;4993405;28;20218;-70
2024/03/02 03:00:51;;;;;;;74.33;15.90;;;;;;;;;;4993104;28;20659;-70
2024/03/02 03:03:18;;;;;;;73.37;15.70;;;;;;;;;;4993092;28;20826;-70
2024/03/02 03:05:45;;;;;;;75.45;15.85;;;;;;;;;;4999996;28;20475;-70
2024/03/02 03:08:12;;;;;;;77.55;16.40;;;;;;;;;;5010219;28;20203;-70
2024/03/02 03:10:39;;;;;;;74.15;15.50;;;;;;;;;;4999357;28;20563;-70
2024/03/02 03:13:08;;;;;;;71.90;16.02;;;;;;;;;;5012425;28;20250;-70
2024/03/02 03:15:36;;;;;;;72.65;16.92;;;;;;;;;;5012415;28;20569;-70
2024/03/02 03:18:04;;;;;;;72.53;16.10;;;;;;;;;;4994972;28;20668;-70
2024/03/02 03:20:31;;;;;;;69.97;13.48;;;;;;;;;;5006096;28;20228;-70
2024/03/02 03:22:58;;;;;;;72.90;15.07;;;;;;;;;;5012459;28;20711;-70
2024/03/02 03:25:26;;;;;;;73.30;15.10;;;;;;;;;;5000098;28;20218;-70
2024/03/02 03:27:53;;;;;;;73.15;16.30;;;;;;;;;;4992752;28;20235;-70
2024/03/02 03:30:21;;;;;;;70.60;13.93;;;;;;;;;;4984729;28;20207;-70
2024/03/02 03:32:49;;;;;;;70.35;14.60;;;;;;;;;;5008082;28;20791;-70
2024/03/02 03:35:16;;;;;;;76.80;16.45;;;;;;;;;;4992687;28;20750;-70
2024/03/02 03:37:43;;;;;;;71.43;14.65;;;;;;;;;;4992606;28;20314;-70
2024/03/02 03:40:10;;;;;;;70.55;15.13;;;;;;;;;;5002714;28;20219;-70
2024/03/02 03:42:37;;;;;;;73.63;14.82;;;;;;;;;;5012166;28;20215;-70
2024/03/02 03:45:05;;;;;;;70.97;14.05;;;;;;;;;;5011685;28;20295;-70
2024/03/02 03:47:34;;;;;;;69.68;14.80;;;;;;;;;;5012171;28;20229;-70
2024/03/02 03:50:03;;;;;;;69.85;13.85;;;;;;;;;;5012151;28;20202;-70
2024/03/02 03:52:30;;;;;;;70.30;14.88;;;;;;;;;;4999152;28;20211;-70
2024/03/02 03:54:57;;;;;;;73.80;14.95;;;;;;;;;;5009030;28;20203;-70
2024/03/02 03:57:24;;;;;;;73.03;15.30;;;;;;;;;;5019172;23;20497;-70
2024/03/02 03:59:51;;;;;;;72.65;14.70;;;;;;;;;;5012228;28;20237;-70
2024/03/02 04:02:18;;;;;;;69.90;14.05;;;;;;;;;;5012107;28;20203;-70
2024/03/02 04:04:46;;;;;;;68.50;13.65;;;;;;;;;;5011721;28;20210;-70
2024/03/02 04:07:14;;;;;;;71.90;14.35;;;;;;;;;;5011901;28;20376;-70
2024/03/02 04:09:41;;;;;;;70.70;14.98;;;;;;;;;;5011829;28;20195;-69
2024/03/02 04:12:08;;;;;;;74.47;14.35;;;;;;;;;;5011637;28;20208;-70
2024/03/02 04:14:35;;;;;;;70.05;14.02;;;;;;;;;;5011473;28;20689;-70
2024/03/02 04:17:02;;;;;;;75.75;15.05;;;;;;;;;;5011594;28;20227;-70
2024/03/02 04:19:29;;;;;;;70.97;14.77;;;;;;;;;;5012120;28;20232;-70
2024/03/02 04:21:57;;;;;;;72.38;15.15;;;;;;;;;;5011665;28;20213;-70
2024/03/02 04:24:25;;;;;;;72.80;13.70;;;;;;;;;;5011420;28;20202;-70
2024/03/02 04:26:52;;;;;;;72.18;15.88;;;;;;;;;;5011623;28;20230;-71
2024/03/02 04:29:19;;;;;;;73.43;14.85;;;;;;;;;;5011666;28;20305;-70
2024/03/02 04:31:46;;;;;;;70.85;13.88;;;;;;;;;;5018244;28;20207;-70
2024/03/02 04:34:13;;;;;;;70.20;13.77;;;;;;;;;;5030939;28;20214;-71
2024/03/02 04:36:40;;;;;;;70.10;13.20;;;;;;;;;;5030976;28;20733;-71
2024/03/02 04:39:10;;;;;;;72.53;14.40;;;;;;;;;;5029739;28;20659;-70
2024/03/02 04:41:37;;;;;;;72.15;14.35;;;;;;;;;;5011668;28;20226;-70
2024/03/02 04:44:04;;;;;;;72.45;14.27;;;;;;;;;;5011322;28;20204;-71
2024/03/02 04:46:33;;;;;;;73.00;14.90;;;;;;;;;;5011232;28;20597;-70
2024/03/02 04:49:00;;;;;;;69.43;13.82;;;;;;;;;;5011267;28;20215;-71
2024/03/02 04:51:27;;;;;;;70.85;13.00;;;;;;;;;;5015298;28;20207;-70
2024/03/02 04:53:54;;;;;;;75.85;15.48;;;;;;;;;;5030956;28;20213;-70
2024/03/02 04:56:43;;;;;;;72.40;14.50;;;;;;;;;;5030864;28;20238;-70
2024/03/02 04:59:10;;;;;;;74.13;13.93;;;;;;;;;;5031024;28;20214;-70
2024/03/02 05:01:37;;;;;;;71.45;15.30;;;;;;;;;;5032537;28;20225;-70
2024/03/02 05:04:05;;;;;;;70.95;14.00;;;;;;;;;;5034554;28;20205;-70
2024/03/02 05:06:32;;;;;;;72.65;15.32;;;;;;;;;;5034571;28;20605;-70
2024/03/02 05:08:59;;;;;;;70.85;14.93;;;;;;;;;;5034834;28;20213;-70
2024/03/02 05:11:50;;;;;;;67.38;12.55;;;;;;;;;;5010729;28;20202;-70
2024/03/02 05:14:17;;;;;;;68.65;13.05;;;;;;;;;;5023909;28;20217;-70
2024/03/02 05:16:44;;;;;;;68.43;12.90;;;;;;;;;;5014546;28;20226;-70
2024/03/02 05:19:11;;;;;;;72.45;14.30;;;;;;;;;;5014808;28;20210;-70
2024/03/02 05:21:38;;;;;;;70.85;13.65;;;;;;;;;;5014774;28;20241;-70
2024/03/02 05:24:05;;;;;;;71.15;13.25;;;;;;;;;;5014362;28;20214;-70
2024/03/02 05:26:34;;;;;;;72.45;14.48;;;;;;;;;;5014426;28;20324;-70
2024/03/02 05:29:01;;;;;;;76.70;14.05;;;;;;;;;;5014412;28;20216;-70
2024/03/02 05:31:28;;;;;;;70.35;15.32;;;;;;;;;;5014583;28;20213;-70
2024/03/02 05:33:55;;;;;;;69.57;13.95;;;;;;;;;;5014807;28;20210;-70
2024/03/02 05:36:22;;;;;;;73.80;14.77;;;;;;;;;;5014171;28;20223;-70
2024/03/02 05:38:49;;;;;;;70.63;13.82;;;;;;;;;;5029251;28;20213;-70
2024/03/02 05:41:16;;;;;;;70.00;13.73;;;;;;;;;;5033882;28;20223;-71
2024/03/02 05:43:44;;;;;;;70.85;12.82;;;;;;;;;;5033932;28;20671;-70
2024/03/02 05:46:16;;;;;;;71.88;14.20;;;;;;;;;;5234106;22;20242;-70
2024/03/02 05:48:43;;;;;;;71.95;13.60;;;;;;;;;;4974380;28;20279;-70
2024/03/02 05:51:10;;;;;;;73.18;14.60;;;;;;;;;;4975165;28;20215;-70
2024/03/02 05:53:38;;;;;;;67.65;13.80;;;;;;;;;;4975147;28;20207;-70
2024/03/02 05:56:06;;;;;;;74.47;15.10;;;;;;;;;;4974717;28;20235;-70
2024/03/02 05:58:46;;;;;;;74.25;13.20;;;;;;;;;;4974908;28;20267;-69
2024/03/02 06:01:14;;;;;;;70.75;13.82;;;;;;;;;;4974842;28;20560;-70
2024/03/02 06:03:41;;;;;;;73.70;14.77;;;;;;;;;;4974701;28;20214;-70
2024/03/02 06:06:08;;;;;;;75.95;14.20;;;;;;;;;;4991576;28;20232;-70
2024/03/02 06:08:36;;;;;;;74.57;15.60;;;;;;;;;;4994315;28;20214;-70
2024/03/02 06:11:03;;;;;;;73.93;14.90;;;;;;;;;;4994151;28;20215;-70
2024/03/02 06:13:30;;;;;;;71.75;14.00;;;;;;;;;;4993155;28;20218;-70
2024/03/02 06:15:57;;;;;;;73.53;13.85;;;;;;;;;;4994058;28;20229;-70
2024/03/02 06:18:25;;;;;;;72.15;15.00;;;;;;;;;;4991507;28;20208;-70
2024/03/02 06:20:52;;;;;;;75.05;14.35;;;;;;;;;;4974435;28;20700;-70
2024/03/02 06:23:19;;;;;;;73.60;15.80;;;;;;;;;;4984748;28;20237;-69
2024/03/02 06:25:47;;;;;;;72.20;15.80;;;;;;;;;;4993817;28;20767;-70
2024/03/02 06:28:15;;;;;;;73.63;15.05;;;;;;;;;;4993906;28;20588;-70
2024/03/02 06:30:42;;;;;;;73.57;14.95;;;;;;;;;;4993898;28;20199;-69
2024/03/02 06:33:09;;;;;;;72.10;13.75;;;;;;;;;;4993804;28;20211;-70
2024/03/02 06:35:37;;;;;;;73.72;14.85;;;;;;;;;;4993514;28;20203;-69
2024/03/02 06:38:05;;;;;;;74.20;15.70;;;;;;;;;;4993530;28;20208;-70
2024/03/02 06:40:32;;;;;;;73.03;14.93;;;;;;;;;;4989585;28;20224;-69
2024/03/02 06:42:59;;;;;;;73.22;16.15;;;;;;;;;;4974098;28;20218;-70
2024/03/02 06:45:26;;;;;;;78.20;17.60;;;;;;;;;;4973876;28;20213;-69
2024/03/02 06:47:53;;;;;;;74.35;16.88;;;;;;;;;;4974358;28;20209;-70
2024/03/02 06:50:20;;;;;;;75.70;18.17;;;;;;;;;;4973817;28;20215;-70
2024/03/02 06:52:49;;;;;;;79.05;19.48;;;;;;;;;;4974104;28;20209;-70
2024/03/02 06:55:16;;;;;;;75.07;17.50;;;;;;;;;;4973877;28;20204;-69
2024/03/02 06:57:43;;;;;;;73.95;16.40;;;;;;;;;;4973917;28;20233;-69
2024/03/02 07:00:10;;;;;;;75.57;16.55;;;;;;;;;;4973744;28;20211;-69
2024/03/02 07:02:37;;;;;;;76.47;16.17;;;;;;;;;;4973545;28;20221;-69
2024/03/02 07:05:07;;;;;;;74.68;16.85;;;;;;;;;;4973299;28;20235;-69
2024/03/02 07:07:34;;;;;;;76.43;17.50;;;;;;;;;;4973718;28;20709;-70
2024/03/02 07:10:03;;;;;;;77.32;15.95;;;;;;;;;;4973945;28;20295;-70
2024/03/02 07:12:30;;;;;;;73.25;15.02;;;;;;;;;;4973899;28;20201;-69
2024/03/02 07:15:18;;;;;;;75.57;15.97;;;;;;;;;;4988508;28;20211;-69
2024/03/02 07:17:45;;;;;;;72.50;15.57;;;;;;;;;;4993158;28;20470;-70
2024/03/02 07:20:13;;;;;;;73.70;15.20;;;;;;;;;;4993155;28;20237;-70
2024/03/02 07:22:40;;;;;;;77.60;16.42;;;;;;;;;;4993243;28;20226;-70
2024/03/02 07:25:08;;;;;;;76.45;16.42;;;;;;;;;;4992521;28;20222;-69
2024/03/02 07:27:36;;;;;;;73.82;17.27;;;;;;;;;;4989392;28;20235;-70
2024/03/02 07:30:03;;;;;;;73.55;15.65;;;;;;;;;;4973541;28;20243;-70
2024/03/02 07:32:30;;;;;;;78.18;15.60;;;;;;;;;;4973291;28;20224;-70
2024/03/02 07:34:57;;;;;;;76.00;15.10;;;;;;;;;;4973247;28;20215;-70
2024/03/02 07:37:24;;;;;;;76.10;16.77;;;;;;;;;;4973033;28;20316;-70
2024/03/02 07:39:52;;;;;;;76.40;16.57;;;;;;;;;;4973116;28;20452;-70
2024/03/02 07:42:20;;;;;;;75.40;16.90;;;;;;;;;;4972886;28;20497;-70
2024/03/02 07:44:47;;;;;;;75.22;17.13;;;;;;;;;;4973090;28;20208;-70
2024/03/02 07:47:14;;;;;;;76.03;17.08;;;;;;;;;;4973981;28;20619;-70
2024/03/02 07:49:42;;;;;;;77.87;16.90;;;;;;;;;;4992479;28;20203;-71
2024/03/02 07:52:09;;;;;;;75.38;16.58;;;;;;;;;;4992306;28;20454;-70
2024/03/02 07:54:36;;;;;;;73.50;15.23;;;;;;;;;;4992196;28;20279;-70
2024/03/02 07:57:03;;;;;;;71.95;16.98;;;;;;;;;;4992084;28;20738;-70
2024/03/02 07:59:31;;;;;;;80.57;17.40;;;;;;;;;;4992197;28;20204;-70
2024/03/02 08:01:59;;;;;;;74.90;16.23;;;;;;;;;;4992180;28;20500;-70
2024/03/02 08:04:26;;;;;;;73.10;16.37;;;;;;;;;;4992281;28;20451;-70
2024/03/02 08:06:54;;;;;;;78.80;15.27;;;;;;;;;;4991993;28;21002;-70
2024/03/02 08:09:21;;;;;;;77.23;16.73;;;;;;;;;;4991973;28;20462;-70
2024/03/02 08:11:48;;;;;;;77.47;16.03;;;;;;;;;;4978931;28;20462;-70
2024/03/02 08:14:16;;;;;;;74.30;15.80;;;;;;;;;;4972867;28;20452;-70
2024/03/02 08:16:44;;;;;;;73.70;15.80;;;;;;;;;;4972412;28;20493;-71
2024/03/02 08:19:11;;;;;;;72.10;16.40;;;;;;;;;;4972484;28;20458;-70
2024/03/02 08:21:38;;;;;;;70.87;14.43;;;;;;;;;;4972614;28;20484;-70
2024/03/02 08:24:06;;;;;;;76.90;15.83;;;;;;;;;;4972320;28;20459;-70
2024/03/02 08:26:33;;;;;;;74.10;15.87;;;;;;;;;;4972716;28;20497;-70
2024/03/02 08:29:01;;;;;;;73.57;14.87;;;;;;;;;;4972495;28;20462;-71
2024/03/02 08:31:28;;;;;;;74.57;15.90;;;;;;;;;;4972649;28;20484;-70
2024/03/02 08:33:58;;;;;;;68.33;13.60;;;;;;;;;;4972673;28;20821;-70
2024/03/02 08:36:25;;;;;;;72.97;15.33;;;;;;;;;;4973638;28;20476;-71
2024/03/02 08:38:52;;;;;;;72.30;16.00;;;;;;;;;;4976210;28;20566;-71
2024/03/02 08:41:20;;;;;;;71.70;15.07;;;;;;;;;;4976409;28;20520;-71
2024/03/02 08:43:47;;;;;;;71.67;14.70;;;;;;;;;;4976557;28;20457;-71
2024/03/02 08:46:14;;;;;;;70.23;14.27;;;;;;;;;;4975888;28;20507;-71
2024/03/02 08:48:41;;;;;;;69.90;14.17;;;;;;;;;;4976243;28;20456;-72
2024/03/02 08:51:10;;;;;;;70.53;14.77;;;;;;;;;;4976043;28;20449;-72
2024/03/02 08:53:37;;;;;;;72.47;14.60;;;;;;;;;;4976451;28;20456;-71
2024/03/02 08:56:05;;;;;;;68.83;13.70;;;;;;;;;;4976051;28;20993;-71
2024/03/02 08:58:32;;;;;;;71.90;13.47;;;;;;;;;;4976143;28;20454;-72
2024/03/02 09:00:59;;;;;;;71.50;13.00;;;;;;;;;;4976024;28;20456;-72
2024/03/02 09:03:26;;;;;;;68.37;12.50;;;;;;;;;;4975839;28;20453;-71
2024/03/02 09:05:54;;;;;;;71.30;15.33;;;;;;;;;;4975672;28;20468;-71
2024/03/02 09:08:22;;;;;;;69.77;12.57;;;;;;;;;;4976061;28;20459;-71
2024/03/02 09:10:49;;;;;;;68.57;12.97;;;;;;;;;;4976045;28;20456;-71
2024/03/02 09:13:16;;;;;;;68.83;13.03;;;;;;;;;;4984604;28;20450;-71
2024/03/02 09:15:44;;;;;;;66.43;11.90;;;;;;;;;;4994959;28;20447;-71
2024/03/02 09:18:11;;;;;;;65.90;10.80;;;;;;;;;;4995209;28;21012;-71
2024/03/02 09:20:38;;;;;;;67.37;11.40;;;;;;;;;;4967799;28;20457;-70
2024/03/02 09:23:05;;;;;;;65.40;10.57;;;;;;;;;;4975618;28;20500;-71
2024/03/02 09:25:34;;;;;;;63.60;9.27;;;;;;;;;;4975207;28;20456;-72
2024/03/02 09:28:01;;;;;;;64.00;8.40;;;;;;;;;;4975824;28;20449;-71
2024/03/02 09:30:28;;;;;;;61.10;7.77;;;;;;;;;;4975432;28;20458;-71
2024/03/02 09:32:55;;;;;;;61.00;7.30;;;;;;;;;;4975401;28;20449;-72
2024/03/02 09:35:23;;;;;;;60.83;7.10;;;;;;;;;;4976646;28;20460;-72
2024/03/02 09:37:50;;;;;;;61.00;7.53;;;;;;;;;;4994958;28;20471;-71
2024/03/02 09:40:17;;;;;;;60.50;7.00;;;;;;;;;;4994770;28;20532;-71
2024/03/02 09:42:51;;;;;;;59.57;6.07;;;;;;;;;;4995039;28;20496;-72
2024/03/02 09:45:19;;;;;;;61.93;6.00;;;;;;;;;;4994438;28;20841;-70
2024/03/02 09:47:47;;;;;;;60.00;5.40;;;;;;;;;;4994100;28;20488;-71
2024/03/02 09:50:14;;;;;;;58.67;5.50;;;;;;;;;;4994705;28;20832;-70
2024/03/02 09:52:41;;;;;;;61.47;6.90;;;;;;;;;;4994685;28;20458;-71
2024/03/02 09:55:09;;;;;;;60.40;5.47;;;;;;;;;;4994455;28;20939;-70
2024/03/02 09:57:36;;;;;;;59.90;5.63;;;;;;;;;;4994465;28;20488;-71
2024/03/02 10:00:06;;;;;;;58.70;5.30;;;;;;;;;;4994411;28;20454;-70
2024/03/02 10:02:33;;;;;;;59.27;5.90;;;;;;;;;;4994409;28;20490;-71
2024/03/02 10:05:00;;;;;;;60.77;5.70;;;;;;;;;;4994153;28;20458;-72
2024/03/02 10:07:27;;;;;;;59.87;6.00;;;;;;;;;;4994282;28;20476;-72
2024/03/02 10:09:54;;;;;;;60.07;5.90;;;;;;;;;;4994273;28;20557;-70
2024/03/02 10:12:22;;;;;;;60.70;6.60;;;;;;;;;;4994161;28;20447;-71
2024/03/02 10:14:51;;;;;;;61.07;5.63;;;;;;;;;;4993860;28;20506;-71
2024/03/02 10:17:19;;;;;;;58.47;5.23;;;;;;;;;;4993857;28;20479;-71
2024/03/02 10:19:47;;;;;;;58.70;4.87;;;;;;;;;;4994242;28;20444;-71
2024/03/02 10:22:15;;;;;;;58.97;4.70;;;;;;;;;;4993966;28;20925;-71
2024/03/02 10:24:44;;;;;;;58.60;4.80;;;;;;;;;;4966384;28;20925;-71
2024/03/02 10:27:11;;;;;;;58.37;4.50;;;;;;;;;;4974313;28;20468;-72
2024/03/02 10:29:42;;;;;;;60.17;5.10;;;;;;;;;;4974493;28;20440;-71
2024/03/02 10:32:12;;;;;;;57.00;3.97;;;;;;;;;;4974580;28;20448;-72
2024/03/02 10:34:41;;;;;;;58.07;4.23;;;;;;;;;;4974207;28;20446;-71
2024/03/02 10:37:08;;;;;;;58.13;4.10;;;;;;;;;;4974372;28;20468;-71
2024/03/02 10:39:36;;;;;;;58.00;4.10;;;;;;;;;;4974096;28;20456;-72
2024/03/02 10:42:04;;;;;;;57.87;4.20;;;;;;;;;;4974333;28;20491;-71
2024/03/02 10:44:32;;;;;;;57.93;3.90;;;;;;;;;;4973954;28;20945;-71
2024/03/02 10:47:02;;;;;;;57.20;3.90;;;;;;;;;;4974006;28;20480;-71
2024/03/02 10:49:29;;;;;;;57.57;4.20;;;;;;;;;;4973870;28;20499;-71
2024/03/02 10:51:57;;;;;;;59.37;3.30;;;;;;;;;;4974085;28;20454;-71
2024/03/02 10:54:28;;;;;;;58.67;3.80;;;;;;;;;;4983475;28;20462;-71
2024/03/02 10:56:57;;;;;;;57.40;3.77;;;;;;;;;;4993500;28;20474;-72
2024/03/02 10:59:28;;;;;;;56.93;3.40;;;;;;;;;;4992563;28;20475;-71
2024/03/02 11:01:57;;;;;;;56.17;2.93;;;;;;;;;;4993259;28;20483;-71
2024/03/02 11:04:26;;;;;;;58.50;3.40;;;;;;;;;;4992759;28;20936;-72
2024/03/02 11:06:53;;;;;;;57.30;3.60;;;;;;;;;;4993508;28;20474;-71
2024/03/02 11:09:24;;;;;;;56.73;3.70;;;;;;;;;;4993108;28;20458;-71
2024/03/02 11:11:55;;;;;;;56.90;3.90;;;;;;;;;;4993028;28;20459;-71
2024/03/02 11:14:25;;;;;;;57.00;3.30;;;;;;;;;;4992832;28;20448;-71
2024/03/02 11:16:54;;;;;;;56.40;3.17;;;;;;;;;;4992912;28;20555;-71
2024/03/02 11:19:21;;;;;;;57.30;3.63;;;;;;;;;;4992645;28;20502;-71
2024/03/02 11:21:49;;;;;;;57.20;3.50;;;;;;;;;;4992976;28;20506;-71
2024/03/02 11:24:33;;;;;;;56.47;3.07;;;;;;;;;;4992816;28;20456;-71
2024/03/02 11:27:01;;;;;;;56.40;3.00;;;;;;;;;;4992646;28;20522;-71
2024/03/02 11:29:44;;;;;;;56.90;3.60;;;;;;;;;;4992623;28;20451;-71
2024/03/02 11:32:15;;;;;;;57.07;2.80;;;;;;;;;;4992811;28;20451;-72
2024/03/02 11:34:45;;;;;;;56.80;3.33;;;;;;;;;;4992451;28;20454;-71
2024/03/02 11:37:12;;;;;;;56.60;3.10;;;;;;;;;;4992613;28;20549;-71
2024/03/02 11:39:41;;;;;;;56.60;3.73;;;;;;;;;;4992449;28;20816;-71
2024/03/02 11:42:09;;;;;;;56.40;3.60;;;;;;;;;;4992324;28;20488;-72
2024/03/02 11:44:37;;;;;;;56.50;3.07;;;;;;;;;;4992431;28;20455;-70
2024/03/02 11:47:06;;;;;;;57.10;3.33;;;;;;;;;;4992558;28;20491;-71
2024/03/02 11:49:40;;;;;;;56.17;2.63;;;;;;;;;;4992286;28;20463;-71
2024/03/02 11:52:07;;;;;;;55.90;3.10;;;;;;;;;;4992351;28;20447;-72
2024/03/02 11:54:35;;;;;;;56.87;2.83;;;;;;;;;;4991963;28;20452;-71
2024/03/02 11:57:04;;;;;;;55.70;2.40;;;;;;;;;;4986669;28;20531;-72
2024/03/02 11:59:31;;;;;;;55.50;2.57;;;;;;;;;;4972895;28;20458;-72
2024/03/02 12:01:59;;;;;;;56.10;2.80;;;;;;;;;;4972770;28;20452;-71
2024/03/02 12:04:27;;;;;;;55.33;2.30;;;;;;;;;;4972628;28;20456;-71
2024/03/02 12:06:56;;;;;;;55.30;2.30;;;;;;;;;;4972680;28;20484;-72
2024/03/02 12:09:23;;;;;;;55.70;2.50;;;;;;;;;;4972578;28;20873;-72
2024/03/02 12:12:02;;;;;;;55.20;2.27;;;;;;;;;;4972639;28;20605;-72
2024/03/02 12:14:30;;;;;;;55.57;2.27;;;;;;;;;;4972541;28;20453;-72
2024/03/02 12:16:58;;;;;;;55.40;2.37;;;;;;;;;;4972587;28;20495;-72
2024/03/02 12:19:25;;;;;;;56.33;2.50;;;;;;;;;;4972432;28;20501;-72
2024/03/02 12:21:52;;;;;;;55.90;2.23;;;;;;;;;;4972204;28;20995;-71
2024/03/02 12:24:19;;;;;;;57.27;2.40;;;;;;;;;;4972391;28;20586;-70
2024/03/02 12:26:48;;;;;;;56.20;2.70;;;;;;;;;;4972430;28;20833;-71
2024/03/02 12:29:15;;;;;;;55.97;2.80;;;;;;;;;;4972296;28;21040;-71
2024/03/02 12:31:45;;;;;;;56.83;3.77;;;;;;;;;;4972523;28;20445;-71
2024/03/02 12:34:13;;;;;;;56.43;2.60;;;;;;;;;;4972179;28;20821;-71
2024/03/02 12:36:41;;;;;;;57.50;2.53;;;;;;;;;;4972471;28;20470;-72
2024/03/02 12:39:09;;;;;;;55.93;2.40;;;;;;;;;;4972184;28;20488;-72
2024/03/02 12:41:37;;;;;;;55.87;2.43;;;;;;;;;;4972311;28;20515;-71
2024/03/02 12:44:04;;;;;;;55.50;2.20;;;;;;;;;;4972099;28;20488;-72
2024/03/02 12:46:31;;;;;;;55.40;2.30;;;;;;;;;;4972064;28;20484;-72
2024/03/02 12:49:01;;;;;;;56.07;2.80;;;;;;;;;;4972371;28;20456;-72
2024/03/02 12:51:28;;;;;;;55.90;2.30;;;;;;;;;;4972363;28;20488;-72
2024/03/02 12:53:56;;;;;;;55.50;2.40;;;;;;;;;;4972360;28;20449;-72
2024/03/02 12:56:23;;;;;;;55.63;2.23;;;;;;;;;;4972105;28;20475;-72
2024/03/02 12:58:54;;;;;;;55.33;2.13;;;;;;;;;;4972323;28;20448;-72
2024/03/02 13:01:21;;;;;;;55.90;2.23;;;;;;;;;;4972067;28;20457;-72
2024/03/02 13:03:49;;;;;;;56.87;3.67;;;;;;;;;;4972366;28;20488;-72
2024/03/02 13:06:18;;;;;;;55.23;2.27;;;;;;;;;;4971943;28;20478;-72
2024/03/02 13:08:46;;;;;;;56.63;2.60;;;;;;;;;;4972131;28;20456;-72
2024/03/02 13:11:13;;;;;;;55.87;2.40;;;;;;;;;;4972386;28;20466;-72
2024/03/02 13:13:41;;;;;;;55.30;2.40;;;;;;;;;;4971861;28;20444;-71
2024/03/02 13:16:10;;;;;;;55.70;2.10;;;;;;;;;;4971947;28;20468;-71
2024/03/02 13:18:37;;;;;;;55.47;2.00;;;;;;;;;;4972062;28;20456;-71
2024/03/02 13:21:04;;;;;;;56.87;2.40;;;;;;;;;;4972140;28;20817;-70
2024/03/02 13:23:32;;;;;;;55.50;2.17;;;;;;;;;;4974806;28;20517;-70
2024/03/02 13:26:00;;;;;;;55.47;2.17;;;;;;;;;;4975389;28;20847;-70
2024/03/02 13:28:27;;;;;;;56.77;2.40;;;;;;;;;;4975327;28;20452;-71
2024/03/02 13:30:54;;;;;;;55.30;2.40;;;;;;;;;;4975585;28;20457;-70
2024/03/02 13:33:22;;;;;;;57.87;2.40;;;;;;;;;;4975521;28;20468;-71
2024/03/02 13:35:50;;;;;;;55.20;2.00;;;;;;;;;;4975250;28;20519;-72
2024/03/02 13:38:17;;;;;;;58.10;2.50;;;;;;;;;;4975426;28;20491;-71
2024/03/02 13:40:46;;;;;;;56.33;2.27;;;;;;;;;;4974817;28;20455;-71
2024/03/02 13:43:14;;;;;;;55.20;1.97;;;;;;;;;;4975147;28;20583;-71
2024/03/02 13:45:41;;;;;;;55.30;2.30;;;;;;;;;;4974838;28;20556;-71
2024/03/02 13:48:09;;;;;;;56.00;2.43;;;;;;;;;;4975195;28;20456;-71
2024/03/02 13:50:36;;;;;;;55.90;2.40;;;;;;;;;;4975124;28;20634;-72
2024/03/02 13:53:04;;;;;;;55.67;2.30;;;;;;;;;;4975092;28;20637;-72
2024/03/02 13:55:31;;;;;;;54.77;2.20;;;;;;;;;;4974524;28;20456;-72
2024/03/02 13:58:00;;;;;;;59.00;2.57;;;;;;;;;;4975337;28;20448;-71
2024/03/02 14:00:27;;;;;;;56.23;2.40;;;;;;;;;;4974577;28;20961;-70
2024/03/02 14:02:54;;;;;;;55.47;2.30;;;;;;;;;;4975030;28;20488;-71
2024/03/02 14:05:21;;;;;;;55.47;2.13;;;;;;;;;;4974775;28;20456;-71
2024/03/02 14:07:48;;;;;;;54.93;2.20;;;;;;;;;;4974495;28;20957;-71
2024/03/02 14:10:15;;;;;;;56.07;2.00;;;;;;;;;;4974606;28;20452;-71
2024/03/02 14:12:42;;;;;;;55.50;2.00;;;;;;;;;;4974898;28;21002;-70
2024/03/02 14:15:11;;;;;;;55.03;1.83;;;;;;;;;;4974743;28;20458;-71
2024/03/02 14:17:38;;;;;;;55.80;2.30;;;;;;;;;;4974444;28;20984;-70
2024/03/02 14:20:06;;;;;;;55.90;2.30;;;;;;;;;;4974523;28;20452;-71
2024/03/02 14:22:34;;;;;;;55.47;2.47;;;;;;;;;;4991231;28;20455;-71
2024/03/02 14:25:01;;;;;;;55.50;2.30;;;;;;;;;;4994133;28;20452;-71